sensor_id;sensor_type;location;lat;lon;timestamp;P1;durP1;ratioP1;P2;durP2;ratioP2
46719;SDS011;32452;51.382;-0.002;2024-03-02T00:02:31;7.75;;;0.90;;
46719;SDS011;32452;51.382;-0.002;2024-03-02T00:05:20;7.68;;;1.38;;
46719;SDS011;32452;51.382;-0.002;2024-03-02T00:08:07;7.80;;;1.00;;
46719;SDS011;32452;51.382;-0.002;2024-03-02T00:11:02;3.85;;;1.02;;
46719;SDS011;32452;51.382;-0.002;2024-03-02T00:13:47;4.68;;;1.20;;
46719;SDS011;32452;51.382;-0.002;2024-03-02T00:16:33;5.85;;;1.52;;
46719;SDS011;32452;51.382;-0.002;2024-03-02T00:19:19;8.75;;;1.05;;
46719;SDS011;32452;51.382;-0.002;2024-03-02T00:22:04;7.05;;;1.27;;
46719;SDS011;32452;51.382;-0.002;2024-03-02T00:24:50;8.82;;;1.73;;
46719;SDS011;32452;51.382;-0.002;2024-03-02T00:27:35;6.50;;;0.70;;
46719;SDS011;32452;51.382;-0.002;2024-03-02T00:33:16;6.18;;;1.65;;
46719;SDS011;32452;51.382;-0.002;2024-03-02T00:36:03;6.32;;;1.27;;
46719;SDS011;32452;51.382;-0.002;2024-03-02T00:38:50;5.72;;;0.98;;
46719;SDS011;32452;51.382;-0.002;2024-03-02T00:41:38;4.47;;;1.55;;
46719;SDS011;32452;51.382;-0.002;2024-03-02T00:44:27;8.52;;;2.28;;
46719;SDS011;32452;51.382;-0.002;2024-03-02T00:47:20;7.13;;;1.20;;
46719;SDS011;32452;51.382;-0.002;2024-03-02T00:50:06;9.05;;;3.03;;
46719;SDS011;32452;51.382;-0.002;2024-03-02T00:53:04;6.80;;;1.88;;
46719;SDS011;32452;51.382;-0.002;2024-03-02T00:55:50;13.73;;;1.58;;
46719;SDS011;32452;51.382;-0.002;2024-03-02T00:58:35;11.48;;;1.58;;
46719;SDS011;32452;51.382;-0.002;2024-03-02T01:01:21;15.27;;;2.47;;
46719;SDS011;32452;51.382;-0.002;2024-03-02T01:04:07;9.13;;;1.95;;
46719;SDS011;32452;51.382;-0.002;2024-03-02T01:06:52;7.13;;;1.70;;
46719;SDS011;32452;51.382;-0.002;2024-03-02T01:09:38;12.02;;;1.77;;
46719;SDS011;32452;51.382;-0.002;2024-03-02T01:12:24;9.02;;;1.48;;
46719;SDS011;32452;51.382;-0.002;2024-03-02T01:15:09;9.40;;;2.22;;
46719;SDS011;32452;51.382;-0.002;2024-03-02T01:17:55;7.10;;;1.67;;
46719;SDS011;32452;51.382;-0.002;2024-03-02T01:20:40;7.95;;;1.52;;
46719;SDS011;32452;51.382;-0.002;2024-03-02T01:23:26;9.27;;;1.92;;
46719;SDS011;32452;51.382;-0.002;2024-03-02T01:26:11;12.48;;;1.80;;
46719;SDS011;32452;51.382;-0.002;2024-03-02T01:28:57;12.45;;;1.35;;
46719;SDS011;32452;51.382;-0.002;2024-03-02T01:31:42;6.60;;;1.60;;
46719;SDS011;32452;51.382;-0.002;2024-03-02T01:34:28;10.55;;;1.60;;
46719;SDS011;32452;51.382;-0.002;2024-03-02T01:37:14;15.73;;;1.90;;
46719;SDS011;32452;51.382;-0.002;2024-03-02T01:39:59;14.85;;;2.60;;
46719;SDS011;32452;51.382;-0.002;2024-03-02T01:42:45;9.35;;;1.70;;
46719;SDS011;32452;51.382;-0.002;2024-03-02T01:45:30;14.13;;;1.88;;
46719;SDS011;32452;51.382;-0.002;2024-03-02T01:48:17;11.88;;;3.80;;
46719;SDS011;32452;51.382;-0.002;2024-03-02T01:51:04;13.30;;;2.08;;
46719;SDS011;32452;51.382;-0.002;2024-03-02T01:53:51;10.07;;;2.13;;
46719;SDS011;32452;51.382;-0.002;2024-03-02T01:56:36;8.20;;;1.55;;
46719;SDS011;32452;51.382;-0.002;2024-03-02T01:59:22;11.75;;;1.90;;
46719;SDS011;32452;51.382;-0.002;2024-03-02T02:02:08;10.70;;;2.50;;
46719;SDS011;32452;51.382;-0.002;2024-03-02T02:04:53;13.07;;;1.27;;
46719;SDS011;32452;51.382;-0.002;2024-03-02T02:07:38;13.52;;;2.72;;
46719;SDS011;32452;51.382;-0.002;2024-03-02T02:10:26;8.50;;;1.45;;
46719;SDS011;32452;51.382;-0.002;2024-03-02T02:13:12;12.07;;;1.30;;
46719;SDS011;32452;51.382;-0.002;2024-03-02T02:16:04;12.48;;;1.77;;
46719;SDS011;32452;51.382;-0.002;2024-03-02T02:18:53;10.38;;;1.70;;
46719;SDS011;32452;51.382;-0.002;2024-03-02T02:21:41;13.88;;;1.70;;
46719;SDS011;32452;51.382;-0.002;2024-03-02T02:24:28;15.07;;;2.03;;
46719;SDS011;32452;51.382;-0.002;2024-03-02T02:27:13;13.23;;;1.92;;
46719;SDS011;32452;51.382;-0.002;2024-03-02T02:30:00;10.50;;;1.30;;
46719;SDS011;32452;51.382;-0.002;2024-03-02T02:32:48;12.82;;;1.65;;
46719;SDS011;32452;51.382;-0.002;2024-03-02T02:35:33;7.78;;;1.48;;
46719;SDS011;32452;51.382;-0.002;2024-03-02T02:38:19;16.80;;;2.85;;
46719;SDS011;32452;51.382;-0.002;2024-03-02T02:41:04;14.75;;;1.30;;
46719;SDS011;32452;51.382;-0.002;2024-03-02T02:43:50;18.25;;;2.33;;
46719;SDS011;32452;51.382;-0.002;2024-03-02T02:46:36;7.35;;;2.10;;
46719;SDS011;32452;51.382;-0.002;2024-03-02T02:49:21;10.30;;;1.80;;
46719;SDS011;32452;51.382;-0.002;2024-03-02T02:52:07;12.27;;;1.80;;
46719;SDS011;32452;51.382;-0.002;2024-03-02T02:54:52;9.48;;;1.42;;
46719;SDS011;32452;51.382;-0.002;2024-03-02T02:57:39;13.80;;;1.73;;
46719;SDS011;32452;51.382;-0.002;2024-03-02T03:00:26;9.45;;;1.60;;
46719;SDS011;32452;51.382;-0.002;2024-03-02T03:03:12;12.98;;;2.20;;
46719;SDS011;32452;51.382;-0.002;2024-03-02T03:05:57;15.68;;;2.15;;
46719;SDS011;32452;51.382;-0.002;2024-03-02T03:08:43;11.73;;;1.30;;
46719;SDS011;32452;51.382;-0.002;2024-03-02T03:11:28;10.93;;;1.55;;
46719;SDS011;32452;51.382;-0.002;2024-03-02T03:14:14;13.82;;;2.20;;
46719;SDS011;32452;51.382;-0.002;2024-03-02T03:17:00;16.27;;;2.67;;
46719;SDS011;32452;51.382;-0.002;2024-03-02T03:19:46;12.25;;;2.92;;
46719;SDS011;32452;51.382;-0.002;2024-03-02T03:22:31;8.27;;;1.40;;
46719;SDS011;32452;51.382;-0.002;2024-03-02T03:25:17;8.88;;;1.60;;
46719;SDS011;32452;51.382;-0.002;2024-03-02T03:28:03;14.63;;;1.90;;
46719;SDS011;32452;51.382;-0.002;2024-03-02T03:30:48;10.68;;;2.45;;
46719;SDS011;32452;51.382;-0.002;2024-03-02T03:33:34;9.80;;;1.52;;
46719;SDS011;32452;51.382;-0.002;2024-03-02T03:36:19;17.92;;;2.05;;
46719;SDS011;32452;51.382;-0.002;2024-03-02T03:39:05;7.65;;;1.83;;
46719;SDS011;32452;51.382;-0.002;2024-03-02T03:41:51;10.48;;;2.25;;
46719;SDS011;32452;51.382;-0.002;2024-03-02T03:44:36;10.02;;;1.77;;
46719;SDS011;32452;51.382;-0.002;2024-03-02T03:47:24;13.45;;;2.25;;
46719;SDS011;32452;51.382;-0.002;2024-03-02T03:50:09;19.70;;;4.07;;
46719;SDS011;32452;51.382;-0.002;2024-03-02T03:52:55;12.93;;;1.75;;
46719;SDS011;32452;51.382;-0.002;2024-03-02T03:55:40;12.18;;;2.22;;
46719;SDS011;32452;51.382;-0.002;2024-03-02T03:58:26;18.48;;;2.67;;
46719;SDS011;32452;51.382;-0.002;2024-03-02T04:01:12;13.98;;;2.40;;
46719;SDS011;32452;51.382;-0.002;2024-03-02T04:03:58;11.93;;;2.08;;
46719;SDS011;32452;51.382;-0.002;2024-03-02T04:06:43;11.50;;;2.10;;
46719;SDS011;32452;51.382;-0.002;2024-03-02T04:09:29;17.02;;;2.83;;
46719;SDS011;32452;51.382;-0.002;2024-03-02T04:12:15;11.05;;;2.63;;
46719;SDS011;32452;51.382;-0.002;2024-03-02T04:15:01;13.57;;;2.80;;
46719;SDS011;32452;51.382;-0.002;2024-03-02T04:17:47;13.60;;;2.80;;
46719;SDS011;32452;51.382;-0.002;2024-03-02T04:20:33;12.77;;;2.13;;
46719;SDS011;32452;51.382;-0.002;2024-03-02T04:23:18;14.93;;;2.63;;
46719;SDS011;32452;51.382;-0.002;2024-03-02T04:26:04;13.00;;;2.33;;
46719;SDS011;32452;51.382;-0.002;2024-03-02T04:28:49;12.55;;;2.22;;
46719;SDS011;32452;51.382;-0.002;2024-03-02T04:31:35;10.32;;;2.20;;
46719;SDS011;32452;51.382;-0.002;2024-03-02T04:34:20;12.73;;;2.35;;
46719;SDS011;32452;51.382;-0.002;2024-03-02T04:37:06;17.35;;;3.50;;
46719;SDS011;32452;51.382;-0.002;2024-03-02T04:39:53;18.98;;;2.90;;
46719;SDS011;32452;51.382;-0.002;2024-03-02T04:42:39;19.20;;;3.53;;
46719;SDS011;32452;51.382;-0.002;2024-03-02T04:45:25;18.92;;;2.75;;
46719;SDS011;32452;51.382;-0.002;2024-03-02T04:48:10;11.68;;;2.08;;
46719;SDS011;32452;51.382;-0.002;2024-03-02T04:50:56;12.75;;;3.28;;
46719;SDS011;32452;51.382;-0.002;2024-03-02T04:53:42;13.75;;;2.03;;
46719;SDS011;32452;51.382;-0.002;2024-03-02T04:56:27;11.57;;;1.88;;
46719;SDS011;32452;51.382;-0.002;2024-03-02T04:59:16;14.90;;;2.30;;
46719;SDS011;32452;51.382;-0.002;2024-03-02T05:02:03;10.27;;;2.40;;
46719;SDS011;32452;51.382;-0.002;2024-03-02T05:04:48;11.57;;;2.53;;
46719;SDS011;32452;51.382;-0.002;2024-03-02T05:07:34;13.70;;;2.05;;
46719;SDS011;32452;51.382;-0.002;2024-03-02T05:10:20;6.57;;;1.50;;
46719;SDS011;32452;51.382;-0.002;2024-03-02T05:13:05;11.48;;;2.38;;
46719;SDS011;32452;51.382;-0.002;2024-03-02T05:15:51;18.10;;;2.42;;
46719;SDS011;32452;51.382;-0.002;2024-03-02T05:18:37;18.73;;;3.70;;
46719;SDS011;32452;51.382;-0.002;2024-03-02T05:21:23;10.55;;;2.33;;
46719;SDS011;32452;51.382;-0.002;2024-03-02T05:24:08;13.27;;;1.70;;
46719;SDS011;32452;51.382;-0.002;2024-03-02T05:26:54;14.52;;;3.05;;
46719;SDS011;32452;51.382;-0.002;2024-03-02T05:29:40;19.02;;;3.28;;
46719;SDS011;32452;51.382;-0.002;2024-03-02T05:32:25;9.13;;;2.30;;
46719;SDS011;32452;51.382;-0.002;2024-03-02T05:35:11;16.30;;;2.67;;
46719;SDS011;32452;51.382;-0.002;2024-03-02T05:37:58;13.10;;;2.17;;
46719;SDS011;32452;51.382;-0.002;2024-03-02T05:40:44;14.30;;;3.03;;
46719;SDS011;32452;51.382;-0.002;2024-03-02T05:43:29;16.55;;;2.78;;
46719;SDS011;32452;51.382;-0.002;2024-03-02T05:46:15;17.83;;;4.38;;
46719;SDS011;32452;51.382;-0.002;2024-03-02T05:49:00;13.55;;;2.92;;
46719;SDS011;32452;51.382;-0.002;2024-03-02T05:51:46;20.35;;;4.35;;
46719;SDS011;32452;51.382;-0.002;2024-03-02T05:54:31;13.15;;;2.20;;
46719;SDS011;32452;51.382;-0.002;2024-03-02T05:57:17;13.77;;;3.22;;
46719;SDS011;32452;51.382;-0.002;2024-03-02T06:00:19;20.55;;;3.55;;
46719;SDS011;32452;51.382;-0.002;2024-03-02T06:03:04;17.85;;;5.22;;
46719;SDS011;32452;51.382;-0.002;2024-03-02T06:05:50;27.90;;;3.13;;
46719;SDS011;32452;51.382;-0.002;2024-03-02T06:08:36;12.43;;;2.92;;
46719;SDS011;32452;51.382;-0.002;2024-03-02T06:11:22;11.07;;;1.92;;
46719;SDS011;32452;51.382;-0.002;2024-03-02T06:14:08;19.67;;;2.22;;
46719;SDS011;32452;51.382;-0.002;2024-03-02T06:16:54;17.58;;;2.95;;
46719;SDS011;32452;51.382;-0.002;2024-03-02T06:19:39;21.27;;;2.88;;
46719;SDS011;32452;51.382;-0.002;2024-03-02T06:22:25;8.05;;;1.85;;
46719;SDS011;32452;51.382;-0.002;2024-03-02T06:25:11;19.85;;;3.00;;
46719;SDS011;32452;51.382;-0.002;2024-03-02T06:27:56;13.07;;;2.33;;
46719;SDS011;32452;51.382;-0.002;2024-03-02T06:30:42;10.60;;;1.85;;
46719;SDS011;32452;51.382;-0.002;2024-03-02T06:33:28;9.93;;;2.17;;
46719;SDS011;32452;51.382;-0.002;2024-03-02T06:36:14;14.98;;;2.75;;
46719;SDS011;32452;51.382;-0.002;2024-03-02T06:39:00;11.98;;;1.73;;
46719;SDS011;32452;51.382;-0.002;2024-03-02T06:41:46;10.40;;;2.45;;
46719;SDS011;32452;51.382;-0.002;2024-03-02T06:44:32;11.75;;;2.05;;
46719;SDS011;32452;51.382;-0.002;2024-03-02T06:47:17;8.45;;;1.63;;
46719;SDS011;32452;51.382;-0.002;2024-03-02T06:50:05;19.23;;;4.25;;
46719;SDS011;32452;51.382;-0.002;2024-03-02T06:52:52;13.30;;;1.90;;
46719;SDS011;32452;51.382;-0.002;2024-03-02T06:55:38;9.82;;;2.53;;
46719;SDS011;32452;51.382;-0.002;2024-03-02T06:58:23;9.93;;;2.50;;
46719;SDS011;32452;51.382;-0.002;2024-03-02T07:01:09;13.95;;;2.47;;
46719;SDS011;32452;51.382;-0.002;2024-03-02T07:03:55;7.35;;;1.45;;
46719;SDS011;32452;51.382;-0.002;2024-03-02T07:06:40;17.40;;;1.83;;
46719;SDS011;32452;51.382;-0.002;2024-03-02T07:09:26;18.63;;;1.98;;
46719;SDS011;32452;51.382;-0.002;2024-03-02T07:12:12;9.98;;;1.75;;
46719;SDS011;32452;51.382;-0.002;2024-03-02T07:14:57;12.32;;;2.40;;
46719;SDS011;32452;51.382;-0.002;2024-03-02T07:17:48;12.30;;;2.63;;
46719;SDS011;32452;51.382;-0.002;2024-03-02T07:20:34;13.23;;;2.08;;
46719;SDS011;32452;51.382;-0.002;2024-03-02T07:23:20;10.70;;;1.70;;
46719;SDS011;32452;51.382;-0.002;2024-03-02T07:26:07;8.38;;;1.88;;
46719;SDS011;32452;51.382;-0.002;2024-03-02T07:28:56;10.73;;;2.05;;
46719;SDS011;32452;51.382;-0.002;2024-03-02T07:31:42;9.20;;;2.03;;
46719;SDS011;32452;51.382;-0.002;2024-03-02T07:34:28;13.82;;;2.50;;
46719;SDS011;32452;51.382;-0.002;2024-03-02T07:37:13;12.73;;;2.28;;
46719;SDS011;32452;51.382;-0.002;2024-03-02T07:39:59;11.48;;;1.85;;
46719;SDS011;32452;51.382;-0.002;2024-03-02T07:42:46;9.60;;;1.98;;
46719;SDS011;32452;51.382;-0.002;2024-03-02T07:45:31;10.68;;;1.90;;
46719;SDS011;32452;51.382;-0.002;2024-03-02T07:48:17;12.20;;;2.25;;
46719;SDS011;32452;51.382;-0.002;2024-03-02T07:51:03;11.02;;;1.90;;
46719;SDS011;32452;51.382;-0.002;2024-03-02T07:53:49;7.72;;;1.77;;
46719;SDS011;32452;51.382;-0.002;2024-03-02T07:56:34;15.93;;;2.75;;
46719;SDS011;32452;51.382;-0.002;2024-03-02T07:59:21;14.85;;;3.03;;
46719;SDS011;32452;51.382;-0.002;2024-03-02T08:02:07;13.80;;;2.65;;
46719;SDS011;32452;51.382;-0.002;2024-03-02T08:04:52;16.60;;;3.75;;
46719;SDS011;32452;51.382;-0.002;2024-03-02T08:07:38;6.63;;;1.48;;
46719;SDS011;32452;51.382;-0.002;2024-03-02T08:10:24;7.35;;;1.38;;
46719;SDS011;32452;51.382;-0.002;2024-03-02T08:13:09;10.38;;;1.55;;
46719;SDS011;32452;51.382;-0.002;2024-03-02T08:15:55;15.48;;;2.65;;
46719;SDS011;32452;51.382;-0.002;2024-03-02T08:18:40;14.80;;;2.80;;
46719;SDS011;32452;51.382;-0.002;2024-03-02T08:21:27;12.52;;;2.10;;
46719;SDS011;32452;51.382;-0.002;2024-03-02T08:24:16;7.30;;;1.20;;
46719;SDS011;32452;51.382;-0.002;2024-03-02T08:27:02;11.40;;;1.75;;
46719;SDS011;32452;51.382;-0.002;2024-03-02T08:29:48;9.00;;;2.10;;
46719;SDS011;32452;51.382;-0.002;2024-03-02T08:32:34;13.85;;;1.60;;
46719;SDS011;32452;51.382;-0.002;2024-03-02T08:35:20;11.63;;;2.28;;
46719;SDS011;32452;51.382;-0.002;2024-03-02T08:38:07;9.32;;;1.92;;
46719;SDS011;32452;51.382;-0.002;2024-03-02T08:40:52;9.43;;;2.55;;
46719;SDS011;32452;51.382;-0.002;2024-03-02T08:43:38;8.77;;;2.20;;
46719;SDS011;32452;51.382;-0.002;2024-03-02T08:46:25;11.40;;;2.10;;
46719;SDS011;32452;51.382;-0.002;2024-03-02T08:49:11;9.65;;;1.35;;
46719;SDS011;32452;51.382;-0.002;2024-03-02T08:51:57;8.90;;;2.08;;
46719;SDS011;32452;51.382;-0.002;2024-03-02T08:54:43;4.90;;;1.20;;
46719;SDS011;32452;51.382;-0.002;2024-03-02T08:57:28;12.43;;;2.25;;
46719;SDS011;32452;51.382;-0.002;2024-03-02T09:00:14;2.13;;;0.60;;
46719;SDS011;32452;51.382;-0.002;2024-03-02T09:03:00;8.77;;;2.40;;
46719;SDS011;32452;51.382;-0.002;2024-03-02T09:05:45;5.10;;;0.93;;
46719;SDS011;32452;51.382;-0.002;2024-03-02T09:08:34;0.93;;;0.45;;
46719;SDS011;32452;51.382;-0.002;2024-03-02T09:11:21;5.00;;;0.75;;
46719;SDS011;32452;51.382;-0.002;2024-03-02T09:14:06;3.90;;;0.55;;
46719;SDS011;32452;51.382;-0.002;2024-03-02T09:16:52;2.05;;;0.80;;
46719;SDS011;32452;51.382;-0.002;2024-03-02T09:19:39;3.45;;;0.80;;
46719;SDS011;32452;51.382;-0.002;2024-03-02T09:22:25;8.30;;;1.20;;
46719;SDS011;32452;51.382;-0.002;2024-03-02T09:25:12;4.95;;;1.20;;
46719;SDS011;32452;51.382;-0.002;2024-03-02T09:27:57;5.22;;;0.90;;
46719;SDS011;32452;51.382;-0.002;2024-03-02T09:30:43;5.80;;;1.10;;
46719;SDS011;32452;51.382;-0.002;2024-03-02T09:33:29;7.80;;;1.48;;
46719;SDS011;32452;51.382;-0.002;2024-03-02T09:36:18;10.68;;;2.00;;
46719;SDS011;32452;51.382;-0.002;2024-03-02T09:39:07;6.68;;;1.20;;
46719;SDS011;32452;51.382;-0.002;2024-03-02T09:41:54;12.77;;;2.03;;
46719;SDS011;32452;51.382;-0.002;2024-03-02T09:44:40;5.10;;;1.15;;
46719;SDS011;32452;51.382;-0.002;2024-03-02T09:47:27;5.32;;;0.90;;
46719;SDS011;32452;51.382;-0.002;2024-03-02T09:50:12;6.32;;;1.30;;
46719;SDS011;32452;51.382;-0.002;2024-03-02T09:52:58;7.07;;;1.55;;
46719;SDS011;32452;51.382;-0.002;2024-03-02T09:55:47;5.40;;;1.00;;
46719;SDS011;32452;51.382;-0.002;2024-03-02T09:58:33;9.70;;;1.13;;
46719;SDS011;32452;51.382;-0.002;2024-03-02T10:01:18;6.78;;;1.25;;
46719;SDS011;32452;51.382;-0.002;2024-03-02T10:04:04;7.57;;;1.88;;
46719;SDS011;32452;51.382;-0.002;2024-03-02T10:06:50;6.60;;;1.00;;
46719;SDS011;32452;51.382;-0.002;2024-03-02T10:09:37;6.10;;;1.50;;
46719;SDS011;32452;51.382;-0.002;2024-03-02T10:12:24;5.00;;;1.40;;
46719;SDS011;32452;51.382;-0.002;2024-03-02T10:15:09;7.30;;;1.77;;
46719;SDS011;32452;51.382;-0.002;2024-03-02T10:17:55;4.45;;;2.15;;
46719;SDS011;32452;51.382;-0.002;2024-03-02T10:20:41;6.47;;;1.60;;
46719;SDS011;32452;51.382;-0.002;2024-03-02T10:23:26;2.90;;;0.85;;
46719;SDS011;32452;51.382;-0.002;2024-03-02T10:26:18;7.43;;;0.80;;
46719;SDS011;32452;51.382;-0.002;2024-03-02T10:29:04;2.42;;;0.40;;
46719;SDS011;32452;51.382;-0.002;2024-03-02T10:31:50;1.35;;;0.40;;
46719;SDS011;32452;51.382;-0.002;2024-03-02T10:34:36;0.90;;;0.25;;
46719;SDS011;32452;51.382;-0.002;2024-03-02T10:37:26;2.20;;;0.30;;
46719;SDS011;32452;51.382;-0.002;2024-03-02T10:40:12;2.40;;;0.20;;
46719;SDS011;32452;51.382;-0.002;2024-03-02T10:42:58;1.77;;;0.43;;
46719;SDS011;32452;51.382;-0.002;2024-03-02T10:45:48;4.15;;;0.30;;
46719;SDS011;32452;51.382;-0.002;2024-03-02T10:48:35;1.70;;;0.40;;
46719;SDS011;32452;51.382;-0.002;2024-03-02T10:51:25;0.40;;;0.20;;
46719;SDS011;32452;51.382;-0.002;2024-03-02T10:54:16;1.63;;;0.40;;
46719;SDS011;32452;51.382;-0.002;2024-03-02T10:57:04;2.40;;;0.30;;
46719;SDS011;32452;51.382;-0.002;2024-03-02T10:59:52;1.10;;;0.30;;
46719;SDS011;32452;51.382;-0.002;2024-03-02T11:02:42;2.28;;;0.30;;
46719;SDS011;32452;51.382;-0.002;2024-03-02T11:05:36;3.75;;;0.40;;
46719;SDS011;32452;51.382;-0.002;2024-03-02T11:08:24;2.33;;;0.30;;
46719;SDS011;32452;51.382;-0.002;2024-03-02T11:11:15;1.92;;;0.55;;
46719;SDS011;32452;51.382;-0.002;2024-03-02T11:14:04;2.30;;;0.45;;
46719;SDS011;32452;51.382;-0.002;2024-03-02T11:17:01;1.50;;;0.20;;
46719;SDS011;32452;51.382;-0.002;2024-03-02T11:19:48;1.98;;;0.30;;
46719;SDS011;32452;51.382;-0.002;2024-03-02T11:22:35;1.27;;;0.40;;
46719;SDS011;32452;51.382;-0.002;2024-03-02T11:25:25;2.45;;;0.30;;
46719;SDS011;32452;51.382;-0.002;2024-03-02T11:28:11;0.82;;;0.15;;
46719;SDS011;32452;51.382;-0.002;2024-03-02T11:30:57;0.40;;;0.20;;
46719;SDS011;32452;51.382;-0.002;2024-03-02T11:33:43;0.50;;;0.30;;
46719;SDS011;32452;51.382;-0.002;2024-03-02T11:36:29;0.52;;;0.20;;
46719;SDS011;32452;51.382;-0.002;2024-03-02T11:39:16;0.43;;;0.28;;
46719;SDS011;32452;51.382;-0.002;2024-03-02T11:42:04;0.17;;;0.10;;
46719;SDS011;32452;51.382;-0.002;2024-03-02T11:44:56;2.80;;;0.17;;
46719;SDS011;32452;51.382;-0.002;2024-03-02T11:47:46;0.45;;;0.15;;
46719;SDS011;32452;51.382;-0.002;2024-03-02T11:50:36;0.38;;;0.03;;
46719;SDS011;32452;51.382;-0.002;2024-03-02T11:53:26;0.30;;;0.20;;
46719;SDS011;32452;51.382;-0.002;2024-03-02T11:56:22;0.93;;;0.20;;
46719;SDS011;32452;51.382;-0.002;2024-03-02T11:59:10;0.65;;;0.20;;
46719;SDS011;32452;51.382;-0.002;2024-03-02T12:01:56;0.10;;;0.10;;
46719;SDS011;32452;51.382;-0.002;2024-03-02T12:04:43;0.73;;;0.10;;
46719;SDS011;32452;51.382;-0.002;2024-03-02T12:07:30;1.20;;;0.13;;
46719;SDS011;32452;51.382;-0.002;2024-03-02T12:10:17;3.33;;;0.40;;
46719;SDS011;32452;51.382;-0.002;2024-03-02T12:13:03;2.05;;;1.55;;
46719;SDS011;32452;51.382;-0.002;2024-03-02T12:15:55;1.20;;;0.20;;
46719;SDS011;32452;51.382;-0.002;2024-03-02T12:18:41;0.10;;;0.10;;
46719;SDS011;32452;51.382;-0.002;2024-03-02T12:21:33;0.50;;;0.20;;
46719;SDS011;32452;51.382;-0.002;2024-03-02T12:24:18;1.85;;;0.25;;
46719;SDS011;32452;51.382;-0.002;2024-03-02T12:27:05;1.48;;;0.80;;
46719;SDS011;32452;51.382;-0.002;2024-03-02T12:29:51;1.75;;;0.30;;
46719;SDS011;32452;51.382;-0.002;2024-03-02T12:32:37;2.08;;;0.40;;
46719;SDS011;32452;51.382;-0.002;2024-03-02T12:35:24;1.35;;;0.47;;
46719;SDS011;32452;51.382;-0.002;2024-03-02T12:38:10;1.25;;;0.40;;
46719;SDS011;32452;51.382;-0.002;2024-03-02T12:40:56;0.52;;;0.13;;
46719;SDS011;32452;51.382;-0.002;2024-03-02T12:43:42;7.90;;;0.90;;
46719;SDS011;32452;51.382;-0.002;2024-03-02T12:46:28;0.85;;;0.22;;
46719;SDS011;32452;51.382;-0.002;2024-03-02T12:49:14;1.30;;;0.30;;
46719;SDS011;32452;51.382;-0.002;2024-03-02T12:52:00;2.03;;;0.40;;
46719;SDS011;32452;51.382;-0.002;2024-03-02T12:54:47;1.10;;;0.35;;
46719;SDS011;32452;51.382;-0.002;2024-03-02T12:57:35;0.70;;;0.30;;
46719;SDS011;32452;51.382;-0.002;2024-03-02T13:00:22;2.47;;;0.38;;
46719;SDS011;32452;51.382;-0.002;2024-03-02T13:03:08;2.88;;;0.57;;
46719;SDS011;32452;51.382;-0.002;2024-03-02T13:05:57;2.20;;;0.52;;
46719;SDS011;32452;51.382;-0.002;2024-03-02T13:08:44;2.83;;;0.40;;
46719;SDS011;32452;51.382;-0.002;2024-03-02T13:11:30;4.22;;;1.20;;
46719;SDS011;32452;51.382;-0.002;2024-03-02T13:14:16;2.28;;;0.38;;
46719;SDS011;32452;51.382;-0.002;2024-03-02T13:17:07;3.75;;;0.63;;
46719;SDS011;32452;51.382;-0.002;2024-03-02T13:19:58;4.20;;;0.28;;
46719;SDS011;32452;51.382;-0.002;2024-03-02T13:22:44;1.98;;;0.50;;
46719;SDS011;32452;51.382;-0.002;2024-03-02T13:25:29;1.85;;;0.47;;
46719;SDS011;32452;51.382;-0.002;2024-03-02T13:28:17;2.08;;;0.40;;
46719;SDS011;32452;51.382;-0.002;2024-03-02T13:31:03;4.28;;;0.70;;
46719;SDS011;32452;51.382;-0.002;2024-03-02T13:33:49;2.38;;;0.50;;
46719;SDS011;32452;51.382;-0.002;2024-03-02T13:36:35;1.65;;;0.32;;
46719;SDS011;32452;51.382;-0.002;2024-03-02T13:39:21;4.65;;;0.85;;
46719;SDS011;32452;51.382;-0.002;2024-03-02T13:42:10;1.67;;;0.40;;
46719;SDS011;32452;51.382;-0.002;2024-03-02T13:44:58;1.98;;;0.55;;
46719;SDS011;32452;51.382;-0.002;2024-03-02T13:47:44;4.80;;;0.95;;
46719;SDS011;32452;51.382;-0.002;2024-03-02T13:50:30;1.75;;;0.60;;
46719;SDS011;32452;51.382;-0.002;2024-03-02T13:53:15;4.45;;;0.50;;
46719;SDS011;32452;51.382;-0.002;2024-03-02T13:56:02;1.65;;;0.70;;
46719;SDS011;32452;51.382;-0.002;2024-03-02T13:58:48;1.67;;;0.38;;
46719;SDS011;32452;51.382;-0.002;2024-03-02T14:01:33;2.25;;;0.30;;
46719;SDS011;32452;51.382;-0.002;2024-03-02T14:04:20;0.45;;;0.20;;
46719;SDS011;32452;51.382;-0.002;2024-03-02T14:07:06;1.27;;;0.20;;
46719;SDS011;32452;51.382;-0.002;2024-03-02T14:09:57;0.40;;;0.20;;
46719;SDS011;32452;51.382;-0.002;2024-03-02T14:12:43;4.57;;;0.80;;
46719;SDS011;32452;51.382;-0.002;2024-03-02T14:15:28;0.77;;;0.28;;
46719;SDS011;32452;51.382;-0.002;2024-03-02T14:18:15;1.38;;;0.40;;
46719;SDS011;32452;51.382;-0.002;2024-03-02T14:21:01;1.50;;;0.50;;
46719;SDS011;32452;51.382;-0.002;2024-03-02T14:23:48;1.63;;;0.38;;
46719;SDS011;32452;51.382;-0.002;2024-03-02T14:26:34;3.15;;;0.82;;
46719;SDS011;32452;51.382;-0.002;2024-03-02T14:29:22;0.85;;;0.60;;
46719;SDS011;32452;51.382;-0.002;2024-03-02T14:32:08;1.90;;;0.40;;
46719;SDS011;32452;51.382;-0.002;2024-03-02T14:34:53;2.38;;;0.47;;
46719;SDS011;32452;51.382;-0.002;2024-03-02T14:37:40;2.95;;;0.32;;
46719;SDS011;32452;51.382;-0.002;2024-03-02T14:40:26;3.30;;;0.57;;
46719;SDS011;32452;51.382;-0.002;2024-03-02T14:43:14;3.53;;;0.50;;
46719;SDS011;32452;51.382;-0.002;2024-03-02T14:45:59;2.05;;;0.50;;
46719;SDS011;32452;51.382;-0.002;2024-03-02T14:48:46;1.23;;;0.28;;
46719;SDS011;32452;51.382;-0.002;2024-03-02T14:51:32;3.00;;;0.70;;
46719;SDS011;32452;51.382;-0.002;2024-03-02T14:54:18;1.75;;;0.57;;
46719;SDS011;32452;51.382;-0.002;2024-03-02T14:57:03;2.60;;;0.60;;
46719;SDS011;32452;51.382;-0.002;2024-03-02T14:59:50;1.45;;;0.35;;
46719;SDS011;32452;51.382;-0.002;2024-03-02T15:02:36;3.20;;;0.85;;
46719;SDS011;32452;51.382;-0.002;2024-03-02T15:05:23;3.08;;;0.40;;
46719;SDS011;32452;51.382;-0.002;2024-03-02T15:08:11;3.38;;;0.57;;
46719;SDS011;32452;51.382;-0.002;2024-03-02T15:10:57;3.40;;;0.80;;
46719;SDS011;32452;51.382;-0.002;2024-03-02T15:13:53;1.25;;;0.40;;
46719;SDS011;32452;51.382;-0.002;2024-03-02T15:16:39;4.57;;;0.85;;
46719;SDS011;32452;51.382;-0.002;2024-03-02T15:19:26;0.63;;;0.43;;
46719;SDS011;32452;51.382;-0.002;2024-03-02T15:22:12;1.45;;;0.63;;
46719;SDS011;32452;51.382;-0.002;2024-03-02T15:24:58;2.33;;;0.60;;
46719;SDS011;32452;51.382;-0.002;2024-03-02T15:27:44;3.30;;;0.95;;
46719;SDS011;32452;51.382;-0.002;2024-03-02T15:30:29;2.60;;;0.50;;
46719;SDS011;32452;51.382;-0.002;2024-03-02T15:33:15;3.75;;;1.85;;
46719;SDS011;32452;51.382;-0.002;2024-03-02T15:36:02;2.58;;;0.50;;
46719;SDS011;32452;51.382;-0.002;2024-03-02T15:38:49;4.00;;;1.15;;
46719;SDS011;32452;51.382;-0.002;2024-03-02T15:41:35;2.60;;;0.70;;
46719;SDS011;32452;51.382;-0.002;2024-03-02T15:44:21;3.80;;;0.90;;
46719;SDS011;32452;51.382;-0.002;2024-03-02T15:47:06;3.05;;;1.13;;
46719;SDS011;32452;51.382;-0.002;2024-03-02T15:49:52;2.00;;;1.45;;
46719;SDS011;32452;51.382;-0.002;2024-03-02T15:52:38;1.98;;;0.98;;
46719;SDS011;32452;51.382;-0.002;2024-03-02T15:55:23;3.30;;;0.90;;
46719;SDS011;32452;51.382;-0.002;2024-03-02T15:58:11;3.13;;;0.65;;
46719;SDS011;32452;51.382;-0.002;2024-03-02T16:01:03;2.17;;;0.80;;
46719;SDS011;32452;51.382;-0.002;2024-03-02T16:03:48;1.85;;;0.90;;
46719;SDS011;32452;51.382;-0.002;2024-03-02T16:06:36;2.90;;;0.50;;
46719;SDS011;32452;51.382;-0.002;2024-03-02T16:09:22;2.05;;;0.55;;
46719;SDS011;32452;51.382;-0.002;2024-03-02T16:12:08;1.05;;;0.70;;
46719;SDS011;32452;51.382;-0.002;2024-03-02T16:14:53;1.83;;;0.85;;
46719;SDS011;32452;51.382;-0.002;2024-03-02T16:17:39;1.70;;;0.80;;
46719;SDS011;32452;51.382;-0.002;2024-03-02T16:20:25;3.50;;;0.90;;
46719;SDS011;32452;51.382;-0.002;2024-03-02T16:23:11;3.83;;;1.15;;
46719;SDS011;32452;51.382;-0.002;2024-03-02T16:25:56;2.90;;;0.43;;